Aviation Digital Data Service (ADDS)

Output produced by METARs form (1206 UTC 24 March 2017)
found at http://www.aviationweather.gov/adds/metars/
 
FBFT 241100Z VRB03KT 9999 SCT025 30/15 Q1017
FBFT 240900Z 2412/2421 15004KT 9999 SCT030
       
FBKE 241100Z VRB02KT 9999 SCT030 28/19 Q1018
FBKE 240900Z 2412/2421 07004KT 9999 SCT025 FEW035CB SCT070 
     PROB30 
     TEMPO 2412/2417 TSRA
       
FBMN 241100Z 26004KT 9999 BKN030 29/19 Q1017
FBMN 240900Z 2412/2421 36004KT 9999 SCT025 FEW035CB SCT070 
     PROB30 
     TEMPO 2412/2417 TSRA
       
FBSP 241100Z 00000KT 9999 SCT030 31/17 Q1017
FBSP 240900Z 2412/2421 VRB02KT 9999 SCT030
       
FBSK 241100Z 24005KT 170V290 9999 FEW030 FEW035TCU 29/11 Q1018 NOSIG
FBSK 241000Z 2412/2518 27006KT 9999 SCT025 FEW035CB SCT070 
     PROB30 
     TEMPO 2412/2416 TSRA 
     FM241900 24005KT CAVOK
       
FBFT 241100Z VRB03KT 9999 SCT025 30/15 Q1017
FBFT 240900Z 2412/2421 15004KT 9999 SCT030